Wilson Lisbon — 5BNU3 — position and weather

sailwx.info

Track history (hours):
 
Tides and Currents Weather Stations Pressure Air Temp Water Temp Dewpoint Dewpoint Depression Visibility Wind Speed Wind Dir Waves Ship Positions

Wilson Lisbon

Last reported at 2015-Apr-21 19:30 UTC. Time now 2015-Apr-21 23:27 UTC.
Position N 58°44' E 005°01'.

Length 90 m; draft 5.6 m.

Type: Ship. MMSI: 212376000.

Date/timePositionNaut miles runAvg speedWind from/ knotsBaromVisibWave heightAir tempDewpointWater temp
2015-Apr-21 19:30N 58°44' E 005°01'8 8.1
2015-Apr-21 18:33N 58°52' E 005°05'9 8.6
2015-Apr-21 17:33N 59°00' E 005°08'7 7.6
2015-Apr-21 16:33N 59°06' E 005°17'9 8.5
2015-Apr-21 15:33N 59°14' E 005°20'5 1.1
2015-Apr-21 11:16N 59°19' E 005°20'1 0.8
2015-Apr-21 10:09N 59°18' E 005°19'0 0.0
2015-Apr-21 09:17N 59°18' E 005°19'0 0.0
2015-Apr-21 08:32N 59°18' E 005°19'0 0.0
2015-Apr-21 07:26N 59°18' E 005°19'0 0.0
2015-Apr-21 06:05N 59°18' E 005°19'0 0.0
2015-Apr-21 03:32N 59°18' E 005°19'0 0.0
2015-Apr-21 02:26N 59°18' E 005°19'0 0.0
2015-Apr-21 01:26N 59°18' E 005°19'0 0.0
2015-Apr-21 00:29N 59°18' E 005°19'0 0.0
2015-Apr-20 22:32N 59°18' E 005°19'0 0.0
2015-Apr-20 21:29N 59°18' E 005°19'0 0.0
2015-Apr-20 20:26N 59°18' E 005°19'0 0.0
2015-Apr-20 19:26N 59°18' E 005°19'0 0.0
2015-Apr-20 18:32N 59°18' E 005°19'0 0.0
2015-Apr-20 17:32N 59°18' E 005°19'0 0.0
2015-Apr-20 16:32N 59°18' E 005°19'0 0.0
2015-Apr-20 15:32N 59°18' E 005°19'0 0.0
2015-Apr-20 13:05N 59°18' E 005°19'0 0.0
2015-Apr-20 12:32N 59°18' E 005°19'0 0.0
2015-Apr-20 11:32N 59°18' E 005°19'0 0.0
2015-Apr-20 10:32N 59°18' E 005°19'0 0.0
2015-Apr-20 09:32N 59°18' E 005°19'0 0.0
2015-Apr-20 08:32N 59°18' E 005°19'0 0.0
2015-Apr-20 07:32N 59°18' E 005°19'0 0.0
2015-Apr-20 06:32N 59°18' E 005°19'0 0.0
2015-Apr-20 05:32N 59°18' E 005°19'0 0.0
2015-Apr-20 04:32N 59°18' E 005°19'0 0.0
2015-Apr-20 03:32N 59°18' E 005°19'0 0.0
2015-Apr-20 01:32N 59°18' E 005°19'0 0.0
2015-Apr-20 00:32N 59°18' E 005°19'0 0.0
2015-Apr-19 23:20N 59°18' E 005°19'0 0.0
2015-Apr-19 22:08N 59°18' E 005°19'0 0.0
2015-Apr-19 21:32N 59°18' E 005°19'0 0.0
2015-Apr-19 19:32N 59°18' E 005°19'0 0.0
2015-Apr-19 18:32N 59°18' E 005°19'0 0.0
2015-Apr-19 12:29N 59°18' E 005°19'0 0.0
2015-Apr-19 11:32N 59°18' E 005°19'0 0.0
2015-Apr-19 10:32N 59°18' E 005°19'3 1.6
2015-Apr-19 08:32N 59°15' E 005°21'5 5.5
2015-Apr-19 07:33N 59°10' E 005°21'3 3.4
2015-Apr-19 06:33N 59°06' E 005°20'5 4.8
2015-Apr-19 05:33N 59°02' E 005°14'6 5.8
2015-Apr-19 04:33N 59°06' E 005°06'8 7.5
2015-Apr-19 03:33N 59°13' E 005°00'8 7.9
2015-Apr-19 02:31N 59°21' E 004°57'  
2015-Apr-12 02:33N 54°21' E 004°51'1110.5
2015-Apr-12 01:30N 54°10' E 004°52'1010.6
2015-Apr-12 00:33N 54°00' E 004°52'1110.6
2015-Apr-11 23:32N 53°50' E 004°52'1111.0
2015-Apr-11 22:33N 53°39' E 004°51'1211.8
2015-Apr-11 21:32N 53°27' E 004°45'1312.5
2015-Apr-11 20:31N 53°16' E 004°37'1212.6
2015-Apr-11 19:33N 53°05' E 004°27'  
Track history (hours):
 
Tides and Currents Weather Stations Pressure Air Temp Water Temp Dewpoint Dewpoint Depression Visibility Wind Speed Wind Dir Waves Ship Positions

Wilson Lisbon

Last reported at 2015-Apr-21 19:30 UTC. Time now 2015-Apr-21 23:27 UTC.
Position N 58°44' E 005°01'.

Length 90 m; draft 5.6 m.

Type: Ship. MMSI: 212376000.

Date/timePositionNaut miles runAvg speedWind from/ knotsBaromVisibWave heightAir tempDewpointWater temp
2015-Apr-21 19:30N 58°44' E 005°01'8 8.1
2015-Apr-21 18:33N 58°52' E 005°05'9 8.6
2015-Apr-21 17:33N 59°00' E 005°08'7 7.6
2015-Apr-21 16:33N 59°06' E 005°17'9 8.5
2015-Apr-21 15:33N 59°14' E 005°20'5 1.1
2015-Apr-21 11:16N 59°19' E 005°20'1 0.8
2015-Apr-21 10:09N 59°18' E 005°19'0 0.0
2015-Apr-21 09:17N 59°18' E 005°19'0 0.0
2015-Apr-21 08:32N 59°18' E 005°19'0 0.0
2015-Apr-21 07:26N 59°18' E 005°19'0 0.0
2015-Apr-21 06:05N 59°18' E 005°19'0 0.0
2015-Apr-21 03:32N 59°18' E 005°19'0 0.0
2015-Apr-21 02:26N 59°18' E 005°19'0 0.0
2015-Apr-21 01:26N 59°18' E 005°19'0 0.0
2015-Apr-21 00:29N 59°18' E 005°19'0 0.0
2015-Apr-20 22:32N 59°18' E 005°19'0 0.0
2015-Apr-20 21:29N 59°18' E 005°19'0 0.0
2015-Apr-20 20:26N 59°18' E 005°19'0 0.0
2015-Apr-20 19:26N 59°18' E 005°19'0 0.0
2015-Apr-20 18:32N 59°18' E 005°19'0 0.0
2015-Apr-20 17:32N 59°18' E 005°19'0 0.0
2015-Apr-20 16:32N 59°18' E 005°19'0 0.0
2015-Apr-20 15:32N 59°18' E 005°19'0 0.0
2015-Apr-20 13:05N 59°18' E 005°19'0 0.0
2015-Apr-20 12:32N 59°18' E 005°19'0 0.0
2015-Apr-20 11:32N 59°18' E 005°19'0 0.0
2015-Apr-20 10:32N 59°18' E 005°19'0 0.0
2015-Apr-20 09:32N 59°18' E 005°19'0 0.0
2015-Apr-20 08:32N 59°18' E 005°19'0 0.0
2015-Apr-20 07:32N 59°18' E 005°19'0 0.0
2015-Apr-20 06:32N 59°18' E 005°19'0 0.0
2015-Apr-20 05:32N 59°18' E 005°19'0 0.0
2015-Apr-20 04:32N 59°18' E 005°19'0 0.0
2015-Apr-20 03:32N 59°18' E 005°19'0 0.0
2015-Apr-20 01:32N 59°18' E 005°19'0 0.0
2015-Apr-20 00:32N 59°18' E 005°19'0 0.0
2015-Apr-19 23:20N 59°18' E 005°19'0 0.0
2015-Apr-19 22:08N 59°18' E 005°19'0 0.0
2015-Apr-19 21:32N 59°18' E 005°19'0 0.0
2015-Apr-19 19:32N 59°18' E 005°19'0 0.0
2015-Apr-19 18:32N 59°18' E 005°19'0 0.0
2015-Apr-19 12:29N 59°18' E 005°19'0 0.0
2015-Apr-19 11:32N 59°18' E 005°19'0 0.0
2015-Apr-19 10:32N 59°18' E 005°19'3 1.6
2015-Apr-19 08:32N 59°15' E 005°21'5 5.5
2015-Apr-19 07:33N 59°10' E 005°21'3 3.4
2015-Apr-19 06:33N 59°06' E 005°20'5 4.8
2015-Apr-19 05:33N 59°02' E 005°14'6 5.8
2015-Apr-19 04:33N 59°06' E 005°06'8 7.5
2015-Apr-19 03:33N 59°13' E 005°00'8 7.9
2015-Apr-19 02:31N 59°21' E 004°57'  
2015-Apr-12 02:33N 54°21' E 004°51'1110.5
2015-Apr-12 01:30N 54°10' E 004°52'1010.6
2015-Apr-12 00:33N 54°00' E 004°52'1110.6
2015-Apr-11 23:32N 53°50' E 004°52'1111.0
2015-Apr-11 22:33N 53°39' E 004°51'1211.8
2015-Apr-11 21:32N 53°27' E 004°45'1312.5
2015-Apr-11 20:31N 53°16' E 004°37'1212.6
2015-Apr-11 19:33N 53°05' E 004°27'  

Dump ship's entire track history